Jerico Springs, MO (64756)

11:41 AM CST on December 20, 2014 (GMT -0600)
City Park | Change Station
CLOSE
Current Station
Personal Weather Station
Location: Stockton, MO
Elevation: 958 ft
Nearby Weather Stations

Elev 958 ft 37.70 °N, 93.80 °W | Updated 11 minutes ago

Overcast
Overcast
41.4 °F
Feels Like 35 °F
N
12.1
Wind Variable Wind from South
Gusts 12.1 mph

Today
High -- | Low -- °F
--% Chance of Precip.
Yesterday
High -- | Low -- °F
Precip. -- in
7:26 AM 5:00 PM
Waning Crescent, 2% visible
Pressure 30.22 in
Visibility 10.0 miles
Clouds Overcast 1600 ft
Windchill 35 °F
Dew Point 38 °F
Humidity 86%
Rainfall 0.00 in
Snow Depth Not available.
UV 1 out of 12
Pollen 3.70 out of 12
Air Quality Not available.
Flu Activity Not available.
METAR KPTS 201715Z AUTO 23010KT 10SM OVC016 05/03 A3022 RMK AO2 T00500027

More Conditions Fewer Conditions

Pressure 30.22 in
Visibility 10.0 miles
Clouds Overcast 1600 ft
Windchill 35 °F
Dew Point 38 °F
Humidity 86%
Rainfall 0.00 in
Snow Depth Not available.
UV 1 out of 12
Pollen 3.70 out of 12
Air Quality Not available.
Flu Activity Not available.
METAR KPTS 201715Z AUTO 23010KT 10SM OVC016 05/03 A3022 RMK AO2 T00500027

More Conditions Fewer Conditions

10-Day Weather Forecast

Almanac

Astronomy

Dec. 20, 2014 Rise Set
Actual Time
Civil Twilight
Nautical Twilight
Astronomical Twilight
Moon
Length of Visible Light
Length of Day
Tomorrow will be .
, % of the Moon is Illuminated

Today's Extremes

State Highs State Lows

Community

WunderPhotos

Upload Photos

1,779,228 photos uploaded!

WunderBlogs® & News

Nearby

Air Quality

  Air Quality AQ Index Pollutant
Not available.

Snow Depth

Station Depth Elevation

Earthquake Activity

City Distance Mag. Time & Date
Minimum magnitude displayed is 2.5.

Coastal Water Temperatures

Place Temperature

Nearby Weather Stations